METAR Data
IDs: Format: Raw Decoded Include TAF

Data at: 1853 UTC 16 Oct 2021

KUTS 161753Z AUTO 01007G14KT 330V080 10SM CLR 22/04 A3031 RMK AO2 SLP262 T02220044 10228 20117 58008
KUTS 161653Z AUTO 02007KT 340V060 10SM CLR 21/06 A3033 RMK AO2 SLP266 T02110061
KUTS 161553Z AUTO 06010G19KT 10SM CLR 19/06 A3034 RMK AO2 SLP270 T01890056
KUTS 161453Z AUTO VRB03KT 10SM CLR 18/08 A3034 RMK AO2 SLP270 T01780083 53021
KUTS 161353Z AUTO VRB04KT 10SM CLR 15/08 A3032 RMK AO2 SLP264 T01500083
KUTS 161253Z AUTO 00000KT 10SM CLR 12/08 A3029 RMK AO2 SLP255 T01170083
KUTS 161153Z AUTO 35005KT 10SM CLR 12/08 A3028 RMK AO2 SLP249 70002 T01170083 10183 20117 53019
KUTS 161053Z AUTO 36005KT 10SM CLR 12/09 A3026 RMK AO2 SLP242 T01220089
KUTS 160953Z AUTO 36003KT 10SM CLR 13/09 A3024 RMK AO2 SLP236 T01330089
KUTS 160853Z AUTO 01004KT 10SM CLR 15/09 A3022 RMK AO2 SLP229 T01500089 51012
KUTS 160753Z AUTO VRB05KT 10SM CLR 16/09 A3021 RMK AO2 SLP226 T01610094
KUTS 160653Z AUTO 36004KT 10SM CLR 17/10 A3021 RMK AO2 SLP224 T01720100
KUTS 160553Z AUTO 36005KT 10SM CLR 18/10 A3019 RMK AO2 SLP217 T01830100 10267 20183 403220183 51026
KUTS 160453Z AUTO VRB06KT 10SM CLR 19/11 A3018 RMK AO2 SLP215 T01940106
KUTS 160353Z AUTO 36007KT 10SM CLR 21/13 A3015 RMK AO2 SLP205 T02110128
KUTS 160253Z AUTO VRB06KT 10SM CLR 22/16 A3011 RMK AO2 SLP191 T02170156 53037
KUTS 160153Z AUTO 35012G19KT 10SM CLR 23/16 A3007 RMK AO2 PK WND 34028/0115 SLP178 T02280161
KUTS 160053Z AUTO 33012G18KT 10SM CLR 25/18 A3003 RMK AO2 SLP164 T02500178
KUTS 152353Z AUTO 34005KT 10SM CLR 27/18 A3000 RMK AO2 SLP153 60002 T02670183 10322 20267 53027
KUTS 152253Z AUTO 32007KT 10SM CLR 28/21 A2996 RMK AO2 SLP141 T02780206
KUTS 152153Z AUTO 32007KT 10SM CLR 30/22 A2994 RMK AO2 SLP131 T03000222
KUTS 152053Z AUTO 32010KT 10SM FEW035 SCT045 SCT055 32/22 A2992 RMK AO2 SLP125 60002 T03220222 56012
KUTS 151953Z AUTO 31008KT 10SM FEW035 FEW042 SCT055 32/23 A2992 RMK AO2 SLP126 T03220228
KUTS 151853Z AUTO VRB06KT 10SM SCT031 31/23 A2993 RMK AO2 RAB22E40 SLP131 P0002 T03110233
KUTS 151753Z AUTO 26006KT 10SM FEW026 FEW060 31/23 A2995 RMK AO2 SLP137 T03110228 10311 20256 58002
KUTS 151653Z AUTO 29009KT 10SM FEW020 SCT028 31/23 A2997 RMK AO2 SLP143 T03060233
KUTS 151553Z AUTO 24006KT 10SM FEW018 28/23 A2997 RMK AO2 SLP143 T02830228
KUTS 151528Z AUTO 23007KT 10SM FEW013 SCT019 SCT048 28/23 A2997 RMK AO2 T02780233
KUTS 151518Z AUTO 26005KT 10SM SCT013 BKN019 27/23 A2996 RMK AO2 T02720233
KUTS 151453Z AUTO 21007KT 10SM OVC011 28/23 A2996 RMK AO2 SLP139 T02780233 53017
KUTS 151432Z AUTO 24006KT 10SM BKN010 27/23 A2996 RMK AO2 CIG 008V014 T02720233
KUTS 151417Z AUTO VRB06KT 10SM FEW009 27/24 A2995 RMK AO2 T02720239
KUTS 151353Z AUTO 20006KT 10SM FEW015 26/24 A2994 RMK AO2 SLP133 T02610239
KUTS 151320Z AUTO 20005KT 10SM FEW006 26/23 A2993 RMK AO2 T02560233
KUTS 151253Z AUTO 20005KT 9SM CLR 26/23 A2992 RMK AO2 SLP126 T02560233 $
KUTS 151233Z AUTO 19006KT 10SM FEW008 SCT023 BKN030 26/23 A2992 RMK AO2 T02560233 $
KUTS 151226Z AUTO 19004KT 10SM SCT010 SCT016 BKN023 26/23 A2991 RMK AO2 T02560233 $
KUTS 151153Z AUTO 21003KT 10SM BKN010 OVC014 26/23 A2991 RMK AO2 CIG 007V011 SLP122 70028 T02560233 10256 20244 53012 $
KUTS 151100Z AUTO 20009KT 10SM OVC012 26/23 A2989 RMK AO2 T02560233 $
KUTS 151053Z AUTO 18007KT 10SM BKN009 OVC014 26/23 A2989 RMK AO2 CIG 007V011 SLP115 T02560233 $
KUTS 150953Z AUTO 19006KT 10SM OVC009 26/23 A2987 RMK AO2 CIG 005V014 SLP110 T02560233
KUTS 150938Z AUTO 18006KT 10SM BKN007 OVC011 26/23 A2987 RMK AO2 CIG 004V010 T02560233
KUTS 150920Z AUTO 17005KT 10SM BKN005 OVC009 26/23 A2987 RMK AO2 T02560233
KUTS 150853Z AUTO 18006KT 9SM OVC004 26/23 A2987 RMK AO2 SLP110 T02560233 58003
KUTS 150753Z AUTO 17004KT 9SM BKN004 25/23 A2988 RMK AO2 SLP111 T02500233
KUTS 150734Z AUTO 17006KT 10SM BKN005 25/23 A2988 RMK AO2 T02500233
KUTS 150712Z AUTO 16003KT 9SM BKN004 BKN039 25/23 A2988 RMK AO2 T02500233
KUTS 150703Z AUTO VRB03KT 10SM SCT005 SCT020 BKN039 25/23 A2988 RMK AO2 T02500228